Time;durP1;ratioP1;P1;durP2;ratioP2;P2;SDS_P1;SDS_P2;PMS_P1;PMS_P2;Temp;Humidity;BMP_temperature;BMP_pressure;BME280_temperature;BME280_humidity;BME280_pressure;Samples;Min_cycle;Max_cycle;Signal;HPM_P1;HPM_P2
2023/12/12 00:00:20;;;;;;;703.38;650.63;;;6.20;99.90;;;;;;6305904;22;20463;-80
2023/12/12 00:02:46;;;;;;;706.83;654.17;;;6.20;99.90;;;;;;6305242;22;20117;-81
2023/12/12 00:05:13;;;;;;;737.47;682.30;;;6.20;99.90;;;;;;6305743;22;20054;-80
2023/12/12 00:07:39;;;;;;;708.33;655.83;;;6.10;99.90;;;;;;6306142;22;20050;-80
2023/12/12 00:10:05;;;;;;;731.42;677.20;;;6.10;99.90;;;;;;6332594;22;20443;-80
2023/12/12 00:12:31;;;;;;;728.88;674.55;;;6.10;99.90;;;;;;6306007;22;20375;-80
2023/12/12 00:14:57;;;;;;;731.53;676.08;;;6.10;99.90;;;;;;6305015;22;20057;-80
2023/12/12 00:17:23;;;;;;;737.35;682.08;;;6.10;99.90;;;;;;6305071;22;20026;-80
2023/12/12 00:19:48;;;;;;;738.65;683.13;;;6.10;99.90;;;;;;6305992;22;20045;-80
2023/12/12 00:22:14;;;;;;;719.75;666.30;;;6.10;99.90;;;;;;6305799;22;20018;-81
2023/12/12 00:24:40;;;;;;;715.75;662.13;;;6.00;99.90;;;;;;6332673;22;20015;-80
2023/12/12 00:27:06;;;;;;;734.17;679.30;;;6.00;99.90;;;;;;6333755;22;20031;-80
2023/12/12 00:29:35;;;;;;;704.80;652.75;;;5.90;99.90;;;;;;6332921;22;20015;-80
2023/12/12 00:32:02;;;;;;;691.30;640.78;;;5.90;99.90;;;;;;6305248;22;20031;-80
2023/12/12 00:34:28;;;;;;;725.42;671.40;;;5.90;99.90;;;;;;6305192;22;20069;-80
2023/12/12 00:36:54;;;;;;;721.63;668.25;;;5.90;99.90;;;;;;6333928;22;20019;-80
2023/12/12 00:39:19;;;;;;;680.63;630.40;;;5.80;99.90;;;;;;6304377;22;20494;-80
2023/12/12 00:41:45;;;;;;;637.33;590.97;;;5.80;99.90;;;;;;6306022;22;20450;-80
2023/12/12 00:44:11;;;;;;;589.30;546.60;;;5.70;99.90;;;;;;6331845;22;20010;-80
2023/12/12 00:46:36;;;;;;;615.10;570.75;;;6.00;99.90;;;;;;6333439;22;20172;-80
2023/12/12 00:49:02;;;;;;;584.67;543.03;;;5.50;99.90;;;;;;6305688;22;20526;-80
2023/12/12 00:51:28;;;;;;;544.35;506.88;;;5.30;99.90;;;;;;6304289;22;20018;-81
2023/12/12 00:53:53;;;;;;;566.75;527.20;;;5.30;99.90;;;;;;6305799;22;20057;-80
2023/12/12 00:56:19;;;;;;;564.97;525.83;;;5.10;99.90;;;;;;6305751;22;20011;-80
2023/12/12 00:58:45;;;;;;;638.70;591.95;;;5.00;99.90;;;;;;6297634;22;20193;-80
2023/12/12 01:01:13;;;;;;;690.85;640.13;;;4.90;99.90;;;;;;6302794;22;20335;-80
2023/12/12 01:03:39;;;;;;;698.90;646.92;;;4.80;99.90;;;;;;6301595;22;20015;-80
2023/12/12 01:06:05;;;;;;;692.95;641.95;;;4.90;99.90;;;;;;6301991;22;20015;-80
2023/12/12 01:08:32;;;;;;;682.05;631.65;;;4.80;99.90;;;;;;6300037;22;20026;-80
2023/12/12 01:10:58;;;;;;;675.17;625.42;;;4.80;99.90;;;;;;6302975;22;20011;-81
2023/12/12 01:13:24;;;;;;;671.65;622.67;;;4.80;99.90;;;;;;6299028;22;20332;-80
2023/12/12 01:15:49;;;;;;;691.33;640.40;;;4.80;99.90;;;;;;6273264;22;20102;-80
2023/12/12 01:18:15;;;;;;;693.55;642.42;;;4.70;99.90;;;;;;6300244;22;20046;-80
2023/12/12 01:20:41;;;;;;;663.58;614.75;;;4.70;99.90;;;;;;6301249;22;20098;-80
2023/12/12 01:23:06;;;;;;;652.13;604.30;;;4.60;99.90;;;;;;6300112;22;20281;-80
2023/12/12 01:25:32;;;;;;;651.25;603.92;;;5.00;99.90;;;;;;6299993;22;20019;-80
2023/12/12 01:27:58;;;;;;;680.53;630.83;;;4.60;99.90;;;;;;6298458;22;20019;-80
2023/12/12 01:30:24;;;;;;;702.50;650.17;;;4.60;99.90;;;;;;6299938;22;20015;-80
2023/12/12 01:32:50;;;;;;;666.33;617.88;;;4.50;99.90;;;;;;6299859;22;20054;-80
2023/12/12 01:35:15;;;;;;;678.25;627.97;;;4.40;99.90;;;;;;6301136;22;20462;-80
2023/12/12 01:37:41;;;;;;;661.20;613.03;;;4.40;99.90;;;;;;6300280;22;20475;-80
2023/12/12 01:40:08;;;;;;;681.85;631.88;;;4.40;99.90;;;;;;6301524;22;20037;-80
2023/12/12 01:42:34;;;;;;;646.88;599.30;;;4.30;99.90;;;;;;6298924;22;20038;-80
2023/12/12 01:44:59;;;;;;;698.00;646.92;;;4.30;99.90;;;;;;6300943;22;20436;-80
2023/12/12 01:47:26;;;;;;;689.85;638.53;;;4.30;99.90;;;;;;6301405;22;20327;-80
2023/12/12 01:49:53;;;;;;;704.83;652.60;;;4.20;99.90;;;;;;6273699;22;20020;-80
2023/12/12 01:52:21;;;;;;;717.85;664.00;;;4.30;99.90;;;;;;6299936;22;20019;-80
2023/12/12 01:54:49;;;;;;;719.90;666.70;;;4.10;99.90;;;;;;6298896;22;20026;-80
2023/12/12 01:57:18;;;;;;;702.70;650.70;;;4.10;99.90;;;;;;6301863;22;20023;-80
2023/12/12 01:59:45;;;;;;;704.63;652.60;;;4.00;99.90;;;;;;6331945;22;20018;-80
2023/12/12 02:02:11;;;;;;;652.45;604.42;;;4.30;99.90;;;;;;6303921;22;20018;-80
2023/12/12 02:04:38;;;;;;;660.00;612.17;;;4.00;99.90;;;;;;6304696;22;20075;-80
2023/12/12 02:07:04;;;;;;;737.75;683.15;;;4.40;99.90;;;;;;6304950;22;20015;-80
2023/12/12 02:09:31;;;;;;;679.90;630.47;;;3.90;99.90;;;;;;6303597;22;20465;-80
2023/12/12 02:11:57;;;;;;;660.70;612.60;;;3.80;99.90;;;;;;6305040;22;20101;-80
2023/12/12 02:14:23;;;;;;;647.33;600.30;;;3.70;99.90;;;;;;6331209;22;20454;-80
2023/12/12 02:16:49;;;;;;;654.35;606.50;;;3.80;99.90;;;;;;6303690;22;20026;-80
2023/12/12 02:19:17;;;;;;;658.30;610.08;;;3.60;99.90;;;;;;6332180;22;20061;-80
2023/12/12 02:21:42;;;;;;;672.08;622.55;;;3.90;99.90;;;;;;6304781;22;20528;-80
2023/12/12 02:24:08;;;;;;;716.20;662.88;;;3.70;99.90;;;;;;6304082;22;20019;-80
2023/12/12 02:26:34;;;;;;;745.33;689.17;;;3.30;99.90;;;;;;6278283;22;20173;-80
2023/12/12 02:29:00;;;;;;;662.38;613.25;;;3.60;99.90;;;;;;6304084;22;20019;-80
2023/12/12 02:31:26;;;;;;;708.80;656.63;;;3.50;99.90;;;;;;6330883;22;20454;-80
2023/12/12 02:33:52;;;;;;;712.85;660.63;;;3.20;99.90;;;;;;6333177;22;20060;-80
2023/12/12 02:36:17;;;;;;;782.88;724.05;;;3.20;99.90;;;;;;6304945;22;20007;-80
2023/12/12 02:38:43;;;;;;;735.85;681.13;;;3.20;99.90;;;;;;6303256;22;20026;-80
2023/12/12 02:41:09;;;;;;;795.28;734.17;;;3.30;99.90;;;;;;6304879;22;20050;-80
2023/12/12 02:43:37;;;;;;;779.85;720.67;;;3.30;99.90;;;;;;6277143;22;20014;-80
2023/12/12 02:46:02;;;;;;;826.92;761.97;;;3.40;99.90;;;;;;6304151;22;20076;-80
2023/12/12 02:48:28;;;;;;;757.13;700.38;;;3.40;99.90;;;;;;6332241;22;20050;-80
2023/12/12 02:50:54;;;;;;;743.00;686.63;;;3.70;99.90;;;;;;6303932;22;20022;-80
2023/12/12 02:53:20;;;;;;;884.15;812.60;;;3.40;99.90;;;;;;6304570;22;20032;-80
2023/12/12 02:55:45;;;;;;;745.33;689.60;;;3.30;99.90;;;;;;6303872;22;20026;-80
2023/12/12 02:58:11;;;;;;;702.97;650.15;;;3.70;99.90;;;;;;6297919;22;20477;-80
2023/12/12 03:00:37;;;;;;;784.30;725.33;;;3.30;99.90;;;;;;6298481;22;20030;-80
2023/12/12 03:03:02;;;;;;;729.08;675.30;;;3.30;99.90;;;;;;6301198;22;20019;-80
2023/12/12 03:05:28;;;;;;;741.97;686.50;;;3.30;99.90;;;;;;6300458;22;20557;-80
2023/12/12 03:07:54;;;;;;;704.63;652.80;;;3.30;99.90;;;;;;6301023;22;20067;-80
2023/12/12 03:10:19;;;;;;;755.58;699.30;;;3.70;99.90;;;;;;6299344;22;20022;-80
2023/12/12 03:12:45;;;;;;;816.22;753.13;;;3.30;99.90;;;;;;6300072;22;20027;-80
2023/12/12 03:15:11;;;;;;;781.95;722.90;;;3.40;99.90;;;;;;6297968;22;20033;-80
2023/12/12 03:17:37;;;;;;;735.97;681.25;;;3.30;99.90;;;;;;6298962;22;20023;-80
2023/12/12 03:20:03;;;;;;;781.75;722.20;;;3.40;99.90;;;;;;6297928;22;20092;-79
2023/12/12 03:22:28;;;;;;;772.88;714.70;;;3.40;99.90;;;;;;6299191;22;20019;-80
2023/12/12 03:24:55;;;;;;;725.45;671.28;;;3.40;99.90;;;;;;6299261;22;20080;-79
2023/12/12 03:27:21;;;;;;;729.65;674.33;;;3.50;99.90;;;;;;6298145;22;20026;-80
2023/12/12 03:29:46;;;;;;;812.83;749.70;;;3.50;99.90;;;;;;6299925;22;20012;-80
2023/12/12 03:32:12;;;;;;;748.67;693.38;;;3.50;99.90;;;;;;6298970;22;20019;-80
2023/12/12 03:34:37;;;;;;;774.83;716.38;;;4.00;99.90;;;;;;6298338;22;20660;-80
2023/12/12 03:37:03;;;;;;;736.55;681.85;;;4.00;99.90;;;;;;6299423;22;20022;-80
2023/12/12 03:39:29;;;;;;;792.78;731.75;;;3.60;99.90;;;;;;6300281;22;20011;-80
2023/12/12 03:41:54;;;;;;;780.75;721.30;;;4.20;99.90;;;;;;6298537;22;20351;-80
2023/12/12 03:44:20;;;;;;;774.03;715.70;;;3.90;99.90;;;;;;6297714;22;20011;-80
2023/12/12 03:46:46;;;;;;;745.65;689.45;;;4.10;99.90;;;;;;6301475;22;20019;-80
2023/12/12 03:49:12;;;;;;;711.38;658.47;;;3.70;99.90;;;;;;6298249;22;20046;-80
2023/12/12 03:51:38;;;;;;;706.55;653.75;;;3.70;99.90;;;;;;6298440;22;20019;-80
2023/12/12 03:54:04;;;;;;;747.05;691.20;;;3.70;99.90;;;;;;6298295;22;20065;-80
2023/12/12 03:56:29;;;;;;;759.22;702.50;;;3.70;99.90;;;;;;6298442;22;20039;-80
2023/12/12 03:58:55;;;;;;;719.67;666.53;;;3.80;99.90;;;;;;6297874;22;20031;-80
2023/12/12 04:01:22;;;;;;;719.67;666.70;;;3.80;99.90;;;;;;6298350;22;20023;-80
2023/12/12 04:03:47;;;;;;;703.35;650.20;;;3.90;99.90;;;;;;6298423;22;20023;-80
2023/12/12 04:06:13;;;;;;;749.10;692.85;;;3.80;99.90;;;;;;6299144;22;20016;-80
2023/12/12 04:08:39;;;;;;;723.10;668.78;;;3.80;99.90;;;;;;6299473;22;20023;-80
2023/12/12 04:11:05;;;;;;;701.33;649.75;;;3.80;99.90;;;;;;6301235;22;20502;-80
2023/12/12 04:13:30;;;;;;;724.72;670.63;;;3.70;99.90;;;;;;6299075;22;20019;-80
2023/12/12 04:15:56;;;;;;;736.08;680.92;;;3.80;99.90;;;;;;6301259;22;20521;-80
2023/12/12 04:18:22;;;;;;;743.65;687.30;;;3.80;99.90;;;;;;6302565;22;20119;-80
2023/12/12 04:20:47;;;;;;;716.95;663.75;;;3.80;99.90;;;;;;6300366;22;20347;-80
2023/12/12 04:23:13;;;;;;;715.25;662.10;;;4.10;99.90;;;;;;6299775;22;20075;-80
2023/12/12 04:25:39;;;;;;;739.00;684.40;;;3.80;99.90;;;;;;6302583;22;20019;-80
2023/12/12 04:28:04;;;;;;;748.88;692.78;;;3.80;99.90;;;;;;6300711;22;20030;-80
2023/12/12 04:30:30;;;;;;;686.25;635.45;;;3.80;99.90;;;;;;6299289;22;20106;-80
2023/12/12 04:32:56;;;;;;;723.60;669.58;;;3.80;99.90;;;;;;6300378;22;20019;-80
2023/12/12 04:35:21;;;;;;;697.00;646.13;;;3.70;99.90;;;;;;6299911;22;20019;-80
2023/12/12 04:37:47;;;;;;;710.42;658.67;;;3.70;99.90;;;;;;6273778;22;20030;-80
2023/12/12 04:40:13;;;;;;;718.80;665.47;;;4.20;99.90;;;;;;6302450;22;20015;-80
2023/12/12 04:42:38;;;;;;;721.70;668.05;;;3.80;99.90;;;;;;6274726;22;20027;-80
2023/12/12 04:45:05;;;;;;;734.40;679.38;;;3.80;99.90;;;;;;6299405;22;20003;-81
2023/12/12 04:47:31;;;;;;;803.47;741.28;;;3.80;99.90;;;;;;6300137;22;20478;-80
2023/12/12 04:49:56;;;;;;;737.88;682.70;;;3.80;99.90;;;;;;6275030;22;20016;-80
2023/12/12 04:52:22;;;;;;;769.30;710.13;;;3.90;99.90;;;;;;6299335;22;20019;-80
2023/12/12 04:54:48;;;;;;;806.92;745.55;;;3.90;99.90;;;;;;6302699;22;20019;-80
2023/12/12 04:57:13;;;;;;;729.53;674.65;;;3.90;99.90;;;;;;6300714;22;20057;-80
2023/12/12 04:59:39;;;;;;;729.92;675.92;;;3.90;99.90;;;;;;6302610;22;20018;-80
2023/12/12 05:02:05;;;;;;;729.17;674.53;;;4.10;99.90;;;;;;6305917;22;20035;-80
2023/12/12 05:04:31;;;;;;;746.35;690.53;;;3.90;99.90;;;;;;6303677;22;20011;-80
2023/12/12 05:06:56;;;;;;;702.00;650.28;;;3.90;99.90;;;;;;6306051;22;20033;-81
2023/12/12 05:09:22;;;;;;;738.40;683.15;;;3.90;99.90;;;;;;6306047;22;20377;-80
2023/12/12 05:11:48;;;;;;;691.33;640.38;;;4.60;99.90;;;;;;6304088;22;20105;-80
2023/12/12 05:14:14;;;;;;;712.35;660.00;;;3.90;99.90;;;;;;6332760;22;20011;-80
2023/12/12 05:16:40;;;;;;;736.90;681.95;;;3.90;99.90;;;;;;6304532;22;20383;-80
2023/12/12 05:19:05;;;;;;;724.97;671.45;;;4.30;99.90;;;;;;6304816;22;20447;-80
2023/12/12 05:21:31;;;;;;;692.55;641.53;;;3.90;99.90;;;;;;6305178;22;20023;-80
2023/12/12 05:23:57;;;;;;;682.97;632.00;;;4.10;99.90;;;;;;6332773;22;20014;-80
2023/12/12 05:26:22;;;;;;;674.55;624.75;;;3.80;99.90;;;;;;6304816;22;20023;-80
2023/12/12 05:28:48;;;;;;;673.97;624.90;;;3.80;99.90;;;;;;6331745;22;20007;-80
2023/12/12 05:31:14;;;;;;;683.42;633.10;;;3.80;99.90;;;;;;6305649;22;20033;-80
2023/12/12 05:33:40;;;;;;;699.33;647.45;;;3.80;99.90;;;;;;6304164;22;20053;-81
2023/12/12 05:36:06;;;;;;;720.00;666.42;;;3.70;99.90;;;;;;6304945;22;20026;-80
2023/12/12 05:38:32;;;;;;;667.33;618.55;;;3.70;99.90;;;;;;6304817;22;20095;-80
2023/12/12 05:40:58;;;;;;;698.22;646.47;;;3.70;99.90;;;;;;6304101;22;20019;-80
2023/12/12 05:43:23;;;;;;;646.75;598.75;;;3.70;99.90;;;;;;6333002;22;20019;-80
2023/12/12 05:45:50;;;;;;;660.78;612.58;;;3.60;99.90;;;;;;6304449;22;20312;-80
2023/12/12 05:48:15;;;;;;;690.38;639.15;;;3.50;99.90;;;;;;6278058;22;20027;-81
2023/12/12 05:50:41;;;;;;;664.95;615.50;;;3.80;99.90;;;;;;6333150;22;20022;-80
2023/12/12 05:53:07;;;;;;;689.15;638.30;;;3.40;99.90;;;;;;6304855;22;20011;-80
2023/12/12 05:55:33;;;;;;;674.90;625.28;;;4.00;99.90;;;;;;6332073;22;20050;-80
2023/12/12 05:57:59;;;;;;;657.60;609.28;;;3.30;99.90;;;;;;6278654;22;20022;-80
2023/12/12 06:00:27;;;;;;;690.08;638.65;;;3.70;99.90;;;;;;6304205;22;20040;-80
2023/12/12 06:02:54;;;;;;;663.35;614.67;;;3.20;99.90;;;;;;6304304;22;20026;-80
2023/12/12 06:05:20;;;;;;;643.20;595.22;;;3.10;99.90;;;;;;6332522;22;20315;-80
2023/12/12 06:07:46;;;;;;;678.20;627.65;;;3.40;99.90;;;;;;6303920;22;20022;-80
2023/12/12 06:10:12;;;;;;;736.33;680.95;;;3.10;99.90;;;;;;6304987;22;20065;-80
2023/12/12 06:12:37;;;;;;;774.10;714.42;;;3.30;99.90;;;;;;6304699;22;20389;-80
2023/12/12 06:15:07;;;;;;;759.58;702.95;;;3.10;99.90;;;;;;6303104;22;20085;-80
2023/12/12 06:17:34;;;;;;;733.75;678.55;;;3.20;99.90;;;;;;6304208;22;20019;-80
2023/12/12 06:20:00;;;;;;;794.53;733.80;;;3.20;99.90;;;;;;6333115;22;20015;-80
2023/12/12 06:22:26;;;;;;;681.97;631.15;;;3.20;99.90;;;;;;6303398;22;20066;-80
2023/12/12 06:24:51;;;;;;;660.80;612.20;;;3.20;99.90;;;;;;6332658;22;20094;-80
2023/12/12 06:27:17;;;;;;;663.15;613.97;;;3.10;99.90;;;;;;6305109;22;20432;-80
2023/12/12 06:29:43;;;;;;;732.70;677.70;;;3.10;99.90;;;;;;6302240;22;20029;-80
2023/12/12 06:32:09;;;;;;;748.78;692.97;;;3.00;99.90;;;;;;6304592;22;20094;-80
2023/12/12 06:34:35;;;;;;;773.55;713.85;;;3.30;99.90;;;;;;6303756;22;20015;-79
2023/12/12 06:37:00;;;;;;;784.33;723.30;;;2.90;99.90;;;;;;6331558;22;20413;-80
2023/12/12 06:39:26;;;;;;;718.75;664.47;;;3.60;99.90;;;;;;6332095;22;20017;-80
2023/12/12 06:41:51;;;;;;;770.03;710.28;;;3.00;99.90;;;;;;6332076;22;20524;-80
2023/12/12 06:44:17;;;;;;;737.10;681.05;;;3.80;99.90;;;;;;6302170;22;20022;-80
2023/12/12 06:46:43;;;;;;;746.20;689.80;;;3.10;99.90;;;;;;6331133;22;20022;-80
2023/12/12 06:49:09;;;;;;;713.33;659.30;;;2.90;99.90;;;;;;6304521;22;20086;-80
2023/12/12 06:51:35;;;;;;;770.75;712.22;;;2.90;99.90;;;;;;6303444;22;20550;-81
2023/12/12 06:54:01;;;;;;;756.67;698.78;;;2.90;99.90;;;;;;6304099;22;20103;-80
2023/12/12 06:56:27;;;;;;;793.33;732.08;;;3.20;99.90;;;;;;6304201;22;20345;-80
2023/12/12 06:58:52;;;;;;;815.33;750.75;;;3.20;99.90;;;;;;6301994;22;20102;-80
2023/12/12 07:01:18;;;;;;;772.83;713.67;;;3.20;99.90;;;;;;6304996;22;20057;-80
2023/12/12 07:03:44;;;;;;;799.75;738.13;;;2.90;99.90;;;;;;6278265;22;20014;-81
2023/12/12 07:06:10;;;;;;;839.38;772.97;;;3.20;99.90;;;;;;6303152;22;20102;-80
2023/12/12 07:08:36;;;;;;;847.97;779.30;;;3.00;99.90;;;;;;6303873;22;20110;-81
2023/12/12 07:11:02;;;;;;;827.28;761.90;;;3.00;99.90;;;;;;6302992;22;20140;-82
2023/12/12 07:13:28;;;;;;;844.85;776.58;;;3.10;99.90;;;;;;6303753;22;20445;-83
2023/12/12 07:15:54;;;;;;;794.63;732.05;;;3.60;99.90;;;;;;6304273;22;20118;-82
2023/12/12 07:18:19;;;;;;;798.05;734.47;;;3.20;99.90;;;;;;6302832;22;20019;-82
2023/12/12 07:20:46;;;;;;;821.15;753.47;;;3.40;99.90;;;;;;6304307;22;20543;-82
2023/12/12 07:23:12;;;;;;;815.22;746.75;;;3.30;99.90;;;;;;6303954;22;20092;-82
2023/12/12 07:25:38;;;;;;;860.50;786.17;;;3.30;99.90;;;;;;6303234;22;20427;-82
2023/12/12 07:28:04;;;;;;;819.58;751.47;;;3.30;99.90;;;;;;6303629;22;20054;-82
2023/12/12 07:30:32;;;;;;;817.60;750.60;;;3.70;99.90;;;;;;6303920;22;20007;-81
2023/12/12 07:32:58;;;;;;;879.72;804.55;;;3.60;99.90;;;;;;6303148;22;20066;-81
2023/12/12 07:35:24;;;;;;;880.15;806.47;;;3.80;99.90;;;;;;6278129;22;20006;-81
2023/12/12 07:37:50;;;;;;;835.45;764.90;;;3.40;99.90;;;;;;6303585;22;20094;-81
2023/12/12 07:40:17;;;;;;;838.80;765.40;;;3.40;99.90;;;;;;6303485;22;20034;-81
2023/12/12 07:42:44;;;;;;;828.95;753.17;;;3.50;99.90;;;;;;6304050;22;20697;-82
2023/12/12 07:45:10;;;;;;;847.15;769.30;;;3.50;99.90;;;;;;6303503;22;20053;-83
2023/12/12 07:47:35;;;;;;;877.95;801.17;;;3.60;99.90;;;;;;6278201;22;20084;-82
2023/12/12 07:50:05;;;;;;;838.05;760.65;;;3.60;99.90;;;;;;6306172;22;20385;-81
2023/12/12 07:52:31;;;;;;;838.47;759.75;;;3.80;99.90;;;;;;6305041;22;20082;-82
2023/12/12 07:54:57;;;;;;;821.33;745.13;;;3.70;99.90;;;;;;6279648;22;20015;-82
2023/12/12 07:57:23;;;;;;;869.00;787.03;;;3.70;99.90;;;;;;6305378;22;20030;-82
2023/12/12 07:59:48;;;;;;;871.20;793.35;;;3.70;99.90;;;;;;6332098;22;20443;-82
2023/12/12 08:02:14;;;;;;;827.65;757.30;;;3.70;99.90;;;;;;6304814;22;20034;-82
2023/12/12 08:04:40;;;;;;;842.15;768.60;;;3.70;99.90;;;;;;6304628;22;20411;-82
2023/12/12 08:07:05;;;;;;;821.30;751.13;;;3.70;99.90;;;;;;6306329;22;20098;-82
2023/12/12 08:09:31;;;;;;;815.05;747.40;;;3.80;99.90;;;;;;6304360;22;20028;-82
2023/12/12 08:11:57;;;;;;;845.40;772.88;;;3.80;99.90;;;;;;6305963;22;20439;-82
2023/12/12 08:14:23;;;;;;;813.85;742.13;;;3.80;99.90;;;;;;6332032;22;20041;-82
2023/12/12 08:16:48;;;;;;;809.00;740.30;;;3.80;99.90;;;;;;6305012;22;20061;-82
2023/12/12 08:19:15;;;;;;;787.25;726.42;;;3.90;99.90;;;;;;6305307;22;20089;-82
2023/12/12 08:21:41;;;;;;;785.15;719.90;;;3.90;99.90;;;;;;6304033;22;20397;-81
2023/12/12 08:24:07;;;;;;;777.13;713.22;;;3.90;99.90;;;;;;6305973;22;20093;-82
2023/12/12 08:26:41;;;;;;;750.00;690.33;;;3.90;99.90;;;;;;6279968;22;20103;-82
2023/12/12 08:29:11;;;;;;;761.88;699.97;;;3.90;99.90;;;;;;6304073;22;20015;-82
2023/12/12 08:31:37;;;;;;;766.25;706.60;;;3.90;99.90;;;;;;6304992;22;20015;-82
2023/12/12 08:34:04;;;;;;;744.22;681.22;;;4.00;99.90;;;;;;6305606;22;20015;-82
2023/12/12 08:36:29;;;;;;;778.25;707.38;;;3.90;99.90;;;;;;6304624;22;20018;-81
2023/12/12 08:38:57;;;;;;;718.33;661.67;;;4.00;99.90;;;;;;6304711;22;20101;-81
2023/12/12 08:41:22;;;;;;;762.90;698.40;;;4.00;99.90;;;;;;6305919;22;20019;-82
2023/12/12 08:43:48;;;;;;;739.03;678.25;;;4.40;99.90;;;;;;6303141;22;20057;-82
2023/12/12 08:46:14;;;;;;;752.63;681.90;;;4.00;99.90;;;;;;6305741;22;20469;-82
2023/12/12 08:48:39;;;;;;;742.10;682.22;;;4.40;99.90;;;;;;6305433;22;20048;-82
2023/12/12 08:51:05;;;;;;;735.00;676.40;;;4.10;99.90;;;;;;6304695;22;20027;-82
2023/12/12 08:53:31;;;;;;;774.05;712.20;;;4.10;99.90;;;;;;6305070;22;20022;-81
2023/12/12 08:55:57;;;;;;;773.70;709.10;;;4.20;99.90;;;;;;6305465;22;20022;-83
2023/12/12 08:58:25;;;;;;;752.67;691.85;;;4.30;99.90;;;;;;6331375;22;20019;-82
2023/12/12 09:00:53;;;;;;;761.63;691.25;;;4.60;99.90;;;;;;6305320;22;20010;-82
2023/12/12 09:03:19;;;;;;;778.10;714.22;;;4.30;99.90;;;;;;6305666;22;20511;-82
2023/12/12 09:05:45;;;;;;;740.88;681.38;;;4.40;99.90;;;;;;6304396;22;20118;-82
2023/12/12 09:08:11;;;;;;;788.10;719.92;;;4.40;99.90;;;;;;6305145;22;20099;-82
2023/12/12 09:10:36;;;;;;;782.58;721.33;;;4.50;99.90;;;;;;6304288;22;20046;-82
2023/12/12 09:13:03;;;;;;;767.72;704.97;;;4.50;99.90;;;;;;6304607;22;20022;-82
2023/12/12 09:15:31;;;;;;;781.05;711.65;;;4.50;99.90;;;;;;6304673;22;20106;-82
2023/12/12 09:17:57;;;;;;;760.08;697.15;;;4.60;99.90;;;;;;6332280;22;20332;-82
2023/12/12 09:20:23;;;;;;;756.47;689.17;;;4.60;99.90;;;;;;6305610;22;20022;-82
2023/12/12 09:22:48;;;;;;;768.15;692.28;;;4.60;99.90;;;;;;6304845;22;20019;-82
2023/12/12 09:25:14;;;;;;;768.65;700.40;;;4.70;99.90;;;;;;6304269;22;20018;-82
2023/12/12 09:27:40;;;;;;;792.67;723.78;;;4.70;99.90;;;;;;6305264;22;20098;-82
2023/12/12 09:30:06;;;;;;;759.95;691.53;;;5.20;99.90;;;;;;6304679;22;20018;-82
2023/12/12 09:32:32;;;;;;;772.13;706.42;;;4.80;99.90;;;;;;6304074;22;20019;-83
2023/12/12 09:34:58;;;;;;;731.10;666.03;;;4.80;99.90;;;;;;6333447;22;20013;-82
2023/12/12 09:37:23;;;;;;;746.67;680.65;;;4.90;99.90;;;;;;6304899;22;20015;-81
2023/12/12 09:39:49;;;;;;;734.88;665.70;;;4.80;99.90;;;;;;6303905;22;20090;-81
2023/12/12 09:42:17;;;;;;;738.95;673.25;;;4.80;99.90;;;;;;6305721;22;20030;-82
2023/12/12 09:44:50;;;;;;;736.95;668.00;;;4.80;99.90;;;;;;6304142;22;20688;-81
2023/12/12 09:47:17;;;;;;;701.22;637.42;;;4.80;99.90;;;;;;6304471;22;20069;-81
2023/12/12 09:49:45;;;;;;;744.83;685.10;;;4.80;99.90;;;;;;6333017;22;20014;-82
2023/12/12 09:52:14;;;;;;;710.97;648.20;;;4.80;99.90;;;;;;6305451;22;20038;-81
2023/12/12 09:54:40;;;;;;;705.15;648.85;;;4.70;99.90;;;;;;6304024;22;20060;-82
2023/12/12 09:57:06;;;;;;;765.97;699.88;;;4.80;99.90;;;;;;6305525;22;20023;-82
2023/12/12 09:59:32;;;;;;;726.30;660.05;;;4.80;99.90;;;;;;6303490;22;20470;-81
2023/12/12 10:01:59;;;;;;;732.58;660.17;;;4.80;99.90;;;;;;6304538;22;20065;-82
2023/12/12 10:04:26;;;;;;;750.17;683.78;;;4.80;99.90;;;;;;6304766;22;20454;-81
2023/12/12 10:06:57;;;;;;;765.88;702.65;;;4.80;99.90;;;;;;6304746;22;20015;-82
2023/12/12 10:09:24;;;;;;;731.20;670.95;;;4.80;99.90;;;;;;6304740;22;20045;-83
2023/12/12 10:11:49;;;;;;;762.92;698.67;;;4.90;99.90;;;;;;6279002;22;20045;-82
2023/12/12 10:14:34;;;;;;;738.13;675.30;;;4.90;99.90;;;;;;6303015;22;20015;-83
2023/12/12 10:17:04;;;;;;;744.00;684.30;;;4.90;99.90;;;;;;6304746;22;20011;-83
2023/12/12 10:19:30;;;;;;;694.83;637.10;;;4.90;99.90;;;;;;6279138;22;20011;-82
2023/12/12 10:21:59;;;;;;;713.50;656.10;;;4.90;99.90;;;;;;6303901;22;20015;-82
2023/12/12 10:24:25;;;;;;;729.80;669.67;;;4.90;99.90;;;;;;6279405;22;20054;-83
2023/12/12 10:26:51;;;;;;;746.28;682.13;;;4.90;99.90;;;;;;6305240;22;20022;-83
2023/12/12 10:29:19;;;;;;;732.75;672.13;;;4.90;99.90;;;;;;6302926;22;20014;-83
2023/12/12 10:31:46;;;;;;;738.33;667.20;;;4.90;99.90;;;;;;6279033;22;20183;-83
2023/12/12 10:34:12;;;;;;;712.45;653.58;;;5.00;99.90;;;;;;6278555;22;20019;-83
2023/12/12 10:36:42;;;;;;;728.08;671.13;;;4.90;99.90;;;;;;6303466;22;20014;-83
2023/12/12 10:39:12;;;;;;;726.80;667.08;;;5.00;99.90;;;;;;6303746;22;20061;-83
2023/12/12 10:41:38;;;;;;;712.22;647.28;;;5.00;99.90;;;;;;6304484;22;20089;-83
2023/12/12 10:44:06;;;;;;;766.22;691.58;;;5.00;99.90;;;;;;6302076;22;20057;-83
2023/12/12 10:46:36;;;;;;;701.78;638.58;;;5.10;99.90;;;;;;6304339;22;20056;-83
2023/12/12 10:49:02;;;;;;;689.60;622.42;;;5.10;99.90;;;;;;6302954;22;20081;-82
2023/12/12 10:51:28;;;;;;;745.10;681.95;;;5.00;99.90;;;;;;6304352;22;20026;-83
2023/12/12 10:53:55;;;;;;;696.45;633.55;;;5.10;99.90;;;;;;6304091;22;20011;-82
2023/12/12 10:56:21;;;;;;;705.47;644.25;;;5.00;99.90;;;;;;6304180;22;20854;-82
2023/12/12 10:58:49;;;;;;;727.72;665.50;;;5.10;99.90;;;;;;6303114;22;20588;-83
2023/12/12 11:01:15;;;;;;;698.83;640.92;;;5.10;99.90;;;;;;6304367;22;20019;-83
2023/12/12 11:03:41;;;;;;;715.35;645.83;;;5.20;99.90;;;;;;6331572;22;20084;-83
2023/12/12 11:06:09;;;;;;;701.53;639.65;;;5.20;99.90;;;;;;6304360;22;20024;-83
2023/12/12 11:08:35;;;;;;;698.00;638.80;;;5.10;99.90;;;;;;6304316;22;20064;-83
2023/12/12 11:11:06;;;;;;;736.75;669.92;;;5.10;99.90;;;;;;6277436;22;20458;-83
2023/12/12 11:13:34;;;;;;;728.58;665.45;;;5.20;99.90;;;;;;6303426;22;20465;-82
2023/12/12 11:16:03;;;;;;;699.03;637.03;;;5.20;99.90;;;;;;6304190;22;20795;-83
2023/12/12 11:18:29;;;;;;;706.35;651.63;;;5.30;99.90;;;;;;6303114;22;20018;-83
2023/12/12 11:20:55;;;;;;;699.42;640.70;;;5.20;99.90;;;;;;6278368;22;20011;-82
2023/12/12 11:23:53;;;;;;;708.40;648.72;;;5.30;99.90;;;;;;6307749;22;20059;-83
2023/12/12 11:26:21;;;;;;;685.42;626.40;;;5.30;99.90;;;;;;6280506;22;20343;-81
2023/12/12 11:28:48;;;;;;;741.78;675.65;;;5.30;99.90;;;;;;6306162;22;20019;-82
2023/12/12 11:31:26;;;;;;;759.47;687.92;;;5.30;99.90;;;;;;6332868;22;20011;-82
2023/12/12 11:34:07;;;;;;;729.75;668.03;;;5.30;99.90;;;;;;6307887;22;20728;-82
2023/12/12 11:36:51;;;;;;;750.15;686.50;;;5.40;99.90;;;;;;6335127;22;20018;-82
2023/12/12 11:39:26;;;;;;;711.65;652.25;;;5.50;99.90;;;;;;6280938;22;20038;-83
2023/12/12 11:41:52;;;;;;;711.17;655.95;;;5.50;99.90;;;;;;6335886;22;20096;-83
2023/12/12 11:44:21;;;;;;;707.03;649.45;;;5.50;99.90;;;;;;6280701;22;20053;-82
2023/12/12 11:46:47;;;;;;;738.15;678.97;;;5.50;99.90;;;;;;6306494;22;20015;-82
2023/12/12 11:49:21;;;;;;;751.30;692.40;;;5.60;99.90;;;;;;6281788;22;20026;-83
2023/12/12 11:51:49;;;;;;;716.42;656.85;;;5.60;99.90;;;;;;6281558;22;20042;-82
2023/12/12 11:54:20;;;;;;;757.92;693.30;;;5.70;99.90;;;;;;6306306;22;20014;-82
2023/12/12 11:56:46;;;;;;;705.38;647.95;;;5.60;99.90;;;;;;6307228;22;20038;-81
2023/12/12 11:59:12;;;;;;;706.47;649.53;;;5.60;99.90;;;;;;6305792;22;20025;-81
2023/12/12 12:01:38;;;;;;;707.17;650.65;;;5.70;99.90;;;;;;6306368;22;20625;-82
2023/12/12 12:04:03;;;;;;;690.92;633.47;;;5.70;99.90;;;;;;6307393;22;20026;-82
2023/12/12 12:06:29;;;;;;;733.30;674.30;;;5.70;99.90;;;;;;6305854;22;20017;-82
2023/12/12 12:08:55;;;;;;;674.60;618.08;;;5.70;99.90;;;;;;6280247;22;20022;-82
2023/12/12 12:11:20;;;;;;;683.78;629.53;;;5.70;99.90;;;;;;6307261;22;20638;-82
2023/12/12 12:13:46;;;;;;;706.15;649.30;;;5.70;99.90;;;;;;6333688;22;20025;-82